Ashland, Illinois
Current Conditions -  °F | °C
As of 1:55 PM on Saturday 20 Dec 2014 (Local Time) from KIJX Reporting Station
Overcast Overcast  
Wind Chill: 36°   Ceiling: 3000
Heat Index: 40°   Visibility: 7mi
Dew Point: 33°   Wind: 6mph
Humidity: 77%   Direction: 140°SE
Pressure: 30.21"   Gusts: NA
Location:  39.89°N, 90.01°W
Report Text: KIJX 201955Z AUTO 14005KT 7SM OVC030 04/01 A3021 RMK AO2 T00440006
Loading
Personal Weather Stations






























Interactive Weather Map New forecast layout! Learn more

10-Day Weather Forecast

Advertisements
Track Severe Weather on mobile